sensor_id;sensor_type;location;lat;lon;timestamp;temperature;humidity
47114;DHT22;32867;51.556;6.832;2022-11-23T00:00:16;9.50;99.90
47114;DHT22;32867;51.556;6.832;2022-11-23T00:05:17;9.50;99.90
47114;DHT22;32867;51.556;6.832;2022-11-23T00:10:18;9.70;99.90
47114;DHT22;32867;51.556;6.832;2022-11-23T00:15:19;9.60;99.90
47114;DHT22;32867;51.556;6.832;2022-11-23T00:20:19;9.70;99.90
47114;DHT22;32867;51.556;6.832;2022-11-23T00:25:20;9.60;99.90
47114;DHT22;32867;51.556;6.832;2022-11-23T00:30:21;9.70;99.90
47114;DHT22;32867;51.556;6.832;2022-11-23T00:35:22;9.70;99.90
47114;DHT22;32867;51.556;6.832;2022-11-23T00:40:23;9.80;99.90
47114;DHT22;32867;51.556;6.832;2022-11-23T00:45:24;9.90;99.90
47114;DHT22;32867;51.556;6.832;2022-11-23T00:50:27;9.80;99.90
47114;DHT22;32867;51.556;6.832;2022-11-23T00:55:27;9.70;99.90
47114;DHT22;32867;51.556;6.832;2022-11-23T01:00:29;9.80;99.90
47114;DHT22;32867;51.556;6.832;2022-11-23T01:05:35;9.80;99.90
47114;DHT22;32867;51.556;6.832;2022-11-23T01:10:36;9.80;99.90
47114;DHT22;32867;51.556;6.832;2022-11-23T01:15:36;9.80;99.90
47114;DHT22;32867;51.556;6.832;2022-11-23T01:20:37;10.00;99.90
47114;DHT22;32867;51.556;6.832;2022-11-23T01:25:37;9.90;99.90
47114;DHT22;32867;51.556;6.832;2022-11-23T01:30:38;9.80;99.90
47114;DHT22;32867;51.556;6.832;2022-11-23T01:35:39;9.90;99.90
47114;DHT22;32867;51.556;6.832;2022-11-23T01:40:41;10.10;99.90
47114;DHT22;32867;51.556;6.832;2022-11-23T01:46:02;9.90;99.90
47114;DHT22;32867;51.556;6.832;2022-11-23T01:51:15;9.90;99.90
47114;DHT22;32867;51.556;6.832;2022-11-23T01:56:23;10.00;99.90
47114;DHT22;32867;51.556;6.832;2022-11-23T02:01:25;10.10;99.90
47114;DHT22;32867;51.556;6.832;2022-11-23T02:06:25;10.00;99.90
47114;DHT22;32867;51.556;6.832;2022-11-23T02:11:26;10.00;99.90
47114;DHT22;32867;51.556;6.832;2022-11-23T02:16:27;10.10;99.90
47114;DHT22;32867;51.556;6.832;2022-11-23T02:21:29;10.10;99.90
47114;DHT22;32867;51.556;6.832;2022-11-23T02:26:32;10.20;99.90
47114;DHT22;32867;51.556;6.832;2022-11-23T02:31:36;10.20;99.90
47114;DHT22;32867;51.556;6.832;2022-11-23T02:36:42;10.20;99.90
47114;DHT22;32867;51.556;6.832;2022-11-23T02:41:48;10.20;99.90
47114;DHT22;32867;51.556;6.832;2022-11-23T02:46:49;10.20;99.90
47114;DHT22;32867;51.556;6.832;2022-11-23T02:51:50;10.30;99.90
47114;DHT22;32867;51.556;6.832;2022-11-23T02:56:52;10.40;99.90
47114;DHT22;32867;51.556;6.832;2022-11-23T03:01:53;10.40;99.90
47114;DHT22;32867;51.556;6.832;2022-11-23T03:06:54;10.50;99.90
47114;DHT22;32867;51.556;6.832;2022-11-23T03:11:55;10.40;99.90
47114;DHT22;32867;51.556;6.832;2022-11-23T03:16:58;10.40;99.90
47114;DHT22;32867;51.556;6.832;2022-11-23T03:22:00;10.30;99.90
47114;DHT22;32867;51.556;6.832;2022-11-23T03:27:05;10.50;99.90
47114;DHT22;32867;51.556;6.832;2022-11-23T03:32:07;10.50;99.90
47114;DHT22;32867;51.556;6.832;2022-11-23T03:37:08;10.40;99.90
47114;DHT22;32867;51.556;6.832;2022-11-23T03:42:10;10.50;99.90
47114;DHT22;32867;51.556;6.832;2022-11-23T03:47:12;10.60;99.90
47114;DHT22;32867;51.556;6.832;2022-11-23T03:52:13;10.50;99.90
47114;DHT22;32867;51.556;6.832;2022-11-23T03:57:13;10.60;99.90
47114;DHT22;32867;51.556;6.832;2022-11-23T04:02:14;10.50;99.90
47114;DHT22;32867;51.556;6.832;2022-11-23T04:07:24;10.30;99.90
47114;DHT22;32867;51.556;6.832;2022-11-23T04:12:28;10.20;99.90
47114;DHT22;32867;51.556;6.832;2022-11-23T04:17:29;10.30;99.90
47114;DHT22;32867;51.556;6.832;2022-11-23T04:22:31;10.20;99.90
47114;DHT22;32867;51.556;6.832;2022-11-23T04:27:32;10.20;99.90
47114;DHT22;32867;51.556;6.832;2022-11-23T04:32:33;10.10;99.90
47114;DHT22;32867;51.556;6.832;2022-11-23T04:37:34;10.10;99.90
47114;DHT22;32867;51.556;6.832;2022-11-23T04:42:35;10.30;99.90
47114;DHT22;32867;51.556;6.832;2022-11-23T04:47:40;10.20;99.90
47114;DHT22;32867;51.556;6.832;2022-11-23T04:52:46;10.20;99.90
47114;DHT22;32867;51.556;6.832;2022-11-23T04:57:52;10.00;99.90
47114;DHT22;32867;51.556;6.832;2022-11-23T05:02:53;10.00;99.90
47114;DHT22;32867;51.556;6.832;2022-11-23T05:07:58;10.00;99.90
47114;DHT22;32867;51.556;6.832;2022-11-23T05:13:09;10.20;99.90
47114;DHT22;32867;51.556;6.832;2022-11-23T05:18:10;10.10;99.90
47114;DHT22;32867;51.556;6.832;2022-11-23T05:23:13;10.10;99.90
47114;DHT22;32867;51.556;6.832;2022-11-23T05:28:18;10.10;99.90
47114;DHT22;32867;51.556;6.832;2022-11-23T05:33:19;10.00;99.90
47114;DHT22;32867;51.556;6.832;2022-11-23T05:38:20;10.10;99.90
47114;DHT22;32867;51.556;6.832;2022-11-23T05:43:21;10.00;99.90
47114;DHT22;32867;51.556;6.832;2022-11-23T05:48:22;10.10;99.90
47114;DHT22;32867;51.556;6.832;2022-11-23T05:53:30;10.20;99.90
47114;DHT22;32867;51.556;6.832;2022-11-23T05:58:40;10.00;99.90
47114;DHT22;32867;51.556;6.832;2022-11-23T06:03:42;10.00;99.90
47114;DHT22;32867;51.556;6.832;2022-11-23T06:08:44;10.00;99.90
47114;DHT22;32867;51.556;6.832;2022-11-23T06:13:48;9.90;99.90
47114;DHT22;32867;51.556;6.832;2022-11-23T06:18:50;10.00;99.90
47114;DHT22;32867;51.556;6.832;2022-11-23T06:23:50;10.00;99.90
47114;DHT22;32867;51.556;6.832;2022-11-23T06:28:52;10.00;99.90
47114;DHT22;32867;51.556;6.832;2022-11-23T06:33:52;9.80;99.90
47114;DHT22;32867;51.556;6.832;2022-11-23T06:38:53;9.80;99.90
47114;DHT22;32867;51.556;6.832;2022-11-23T06:43:58;9.90;99.90
47114;DHT22;32867;51.556;6.832;2022-11-23T06:49:09;9.90;99.90
47114;DHT22;32867;51.556;6.832;2022-11-23T06:54:11;9.80;99.90
47114;DHT22;32867;51.556;6.832;2022-11-23T06:59:12;9.80;99.90
47114;DHT22;32867;51.556;6.832;2022-11-23T07:04:15;9.80;99.90
47114;DHT22;32867;51.556;6.832;2022-11-23T07:09:21;9.70;99.90
47114;DHT22;32867;51.556;6.832;2022-11-23T07:14:33;9.80;99.90
47114;DHT22;32867;51.556;6.832;2022-11-23T07:19:34;10.00;99.90
47114;DHT22;32867;51.556;6.832;2022-11-23T07:24:35;9.70;99.90
47114;DHT22;32867;51.556;6.832;2022-11-23T07:29:36;9.70;99.90
47114;DHT22;32867;51.556;6.832;2022-11-23T07:34:37;9.80;99.90
47114;DHT22;32867;51.556;6.832;2022-11-23T07:39:39;9.90;99.90
47114;DHT22;32867;51.556;6.832;2022-11-23T07:44:40;9.90;99.90
47114;DHT22;32867;51.556;6.832;2022-11-23T07:49:43;9.80;99.90
47114;DHT22;32867;51.556;6.832;2022-11-23T07:54:44;9.90;99.90
47114;DHT22;32867;51.556;6.832;2022-11-23T07:59:45;10.10;99.90
47114;DHT22;32867;51.556;6.832;2022-11-23T08:04:46;10.10;99.90
47114;DHT22;32867;51.556;6.832;2022-11-23T08:09:46;10.20;99.90
47114;DHT22;32867;51.556;6.832;2022-11-23T08:14:47;10.20;99.90
47114;DHT22;32867;51.556;6.832;2022-11-23T08:19:48;10.20;99.90
47114;DHT22;32867;51.556;6.832;2022-11-23T08:24:49;10.30;99.90
47114;DHT22;32867;51.556;6.832;2022-11-23T08:29:50;10.20;99.90
47114;DHT22;32867;51.556;6.832;2022-11-23T08:34:51;10.30;99.90
47114;DHT22;32867;51.556;6.832;2022-11-23T08:39:51;10.50;99.90
47114;DHT22;32867;51.556;6.832;2022-11-23T08:44:52;10.40;99.90
47114;DHT22;32867;51.556;6.832;2022-11-23T08:49:53;10.60;99.90
47114;DHT22;32867;51.556;6.832;2022-11-23T08:54:53;11.20;99.90
47114;DHT22;32867;51.556;6.832;2022-11-23T08:59:54;13.20;99.90
47114;DHT22;32867;51.556;6.832;2022-11-23T09:04:55;14.80;98.60
47114;DHT22;32867;51.556;6.832;2022-11-23T09:09:55;15.80;90.00
47114;DHT22;32867;51.556;6.832;2022-11-23T09:14:56;16.10;90.20
47114;DHT22;32867;51.556;6.832;2022-11-23T09:19:56;17.10;82.40
47114;DHT22;32867;51.556;6.832;2022-11-23T09:24:57;17.50;80.70
47114;DHT22;32867;51.556;6.832;2022-11-23T09:29:58;18.00;74.10
47114;DHT22;32867;51.556;6.832;2022-11-23T09:34:58;18.00;76.40
47114;DHT22;32867;51.556;6.832;2022-11-23T09:39:59;18.20;72.30
47114;DHT22;32867;51.556;6.832;2022-11-23T09:50:47;19.20;66.90
47114;DHT22;32867;51.556;6.832;2022-11-23T09:55:51;19.50;65.50
47114;DHT22;32867;51.556;6.832;2022-11-23T10:06:26;19.50;64.90
47114;DHT22;32867;51.556;6.832;2022-11-23T10:22:11;19.80;61.20
47114;DHT22;32867;51.556;6.832;2022-11-23T10:27:18;19.50;59.90
47114;DHT22;32867;51.556;6.832;2022-11-23T10:32:44;20.80;62.70
47114;DHT22;32867;51.556;6.832;2022-11-23T10:37:46;22.30;56.10
47114;DHT22;32867;51.556;6.832;2022-11-23T10:42:52;21.70;56.10
47114;DHT22;32867;51.556;6.832;2022-11-23T10:47:56;22.20;54.50
47114;DHT22;32867;51.556;6.832;2022-11-23T10:53:17;21.80;54.80
47114;DHT22;32867;51.556;6.832;2022-11-23T10:58:30;21.50;56.00
47114;DHT22;32867;51.556;6.832;2022-11-23T11:03:34;21.90;53.60
47114;DHT22;32867;51.556;6.832;2022-11-23T11:08:53;22.20;53.30
47114;DHT22;32867;51.556;6.832;2022-11-23T11:19:34;22.50;52.10
47114;DHT22;32867;51.556;6.832;2022-11-23T11:24:37;22.90;51.80
47114;DHT22;32867;51.556;6.832;2022-11-23T11:35:02;21.80;53.80
47114;DHT22;32867;51.556;6.832;2022-11-23T11:45:18;22.00;52.20
47114;DHT22;32867;51.556;6.832;2022-11-23T11:50:24;21.40;52.60
47114;DHT22;32867;51.556;6.832;2022-11-23T11:55:44;21.30;52.90
47114;DHT22;32867;51.556;6.832;2022-11-23T12:00:47;22.00;52.40
47114;DHT22;32867;51.556;6.832;2022-11-23T12:05:52;22.20;51.50
47114;DHT22;32867;51.556;6.832;2022-11-23T12:10:58;21.90;51.20
47114;DHT22;32867;51.556;6.832;2022-11-23T12:31:53;15.80;62.60
47114;DHT22;32867;51.556;6.832;2022-11-23T12:42:44;14.60;66.30
47114;DHT22;32867;51.556;6.832;2022-11-23T12:53:38;13.90;69.00
47114;DHT22;32867;51.556;6.832;2022-11-23T12:58:42;14.00;70.50
47114;DHT22;32867;51.556;6.832;2022-11-23T13:15:34;14.80;68.00
47114;DHT22;32867;51.556;6.832;2022-11-23T13:26:24;16.10;64.90
47114;DHT22;32867;51.556;6.832;2022-11-23T13:31:30;16.00;64.90
47114;DHT22;32867;51.556;6.832;2022-11-23T13:36:36;16.40;63.60
47114;DHT22;32867;51.556;6.832;2022-11-23T13:41:58;16.40;63.10
47114;DHT22;32867;51.556;6.832;2022-11-23T13:57:18;15.10;67.50
47114;DHT22;32867;51.556;6.832;2022-11-23T14:02:25;15.20;66.80
47114;DHT22;32867;51.556;6.832;2022-11-23T14:07:36;14.80;68.60
47114;DHT22;32867;51.556;6.832;2022-11-23T14:12:53;14.30;69.40
47114;DHT22;32867;51.556;6.832;2022-11-23T14:18:01;13.90;70.70
47114;DHT22;32867;51.556;6.832;2022-11-23T14:23:16;13.50;72.20
47114;DHT22;32867;51.556;6.832;2022-11-23T14:34:33;13.10;74.00
47114;DHT22;32867;51.556;6.832;2022-11-23T14:39:50;12.90;75.00
47114;DHT22;32867;51.556;6.832;2022-11-23T14:44:55;12.80;75.80
47114;DHT22;32867;51.556;6.832;2022-11-23T14:49:57;12.70;76.50
47114;DHT22;32867;51.556;6.832;2022-11-23T14:55:01;12.40;77.80
47114;DHT22;32867;51.556;6.832;2022-11-23T15:00:03;12.40;78.60
47114;DHT22;32867;51.556;6.832;2022-11-23T15:05:11;12.40;79.80
47114;DHT22;32867;51.556;6.832;2022-11-23T15:15:24;12.30;80.10
47114;DHT22;32867;51.556;6.832;2022-11-23T15:20:32;12.10;81.30
47114;DHT22;32867;51.556;6.832;2022-11-23T15:25:33;12.20;81.70
47114;DHT22;32867;51.556;6.832;2022-11-23T15:30:34;12.20;81.80
47114;DHT22;32867;51.556;6.832;2022-11-23T15:35:37;12.10;82.40
47114;DHT22;32867;51.556;6.832;2022-11-23T15:40:41;12.00;83.40
47114;DHT22;32867;51.556;6.832;2022-11-23T15:50:55;11.80;87.60
47114;DHT22;32867;51.556;6.832;2022-11-23T15:56:04;11.70;91.20
47114;DHT22;32867;51.556;6.832;2022-11-23T16:01:10;11.40;96.40
47114;DHT22;32867;51.556;6.832;2022-11-23T16:11:34;11.30;99.90
47114;DHT22;32867;51.556;6.832;2022-11-23T16:16:35;11.20;99.90
47114;DHT22;32867;51.556;6.832;2022-11-23T16:21:43;10.80;99.90
47114;DHT22;32867;51.556;6.832;2022-11-23T16:26:44;11.00;99.90
47114;DHT22;32867;51.556;6.832;2022-11-23T16:31:55;10.90;99.90
47114;DHT22;32867;51.556;6.832;2022-11-23T16:36:56;10.80;99.90
47114;DHT22;32867;51.556;6.832;2022-11-23T16:41:58;10.60;99.90
47114;DHT22;32867;51.556;6.832;2022-11-23T16:47:22;10.50;99.90
47114;DHT22;32867;51.556;6.832;2022-11-23T16:52:23;10.40;99.90
47114;DHT22;32867;51.556;6.832;2022-11-23T16:57:32;10.40;99.90
47114;DHT22;32867;51.556;6.832;2022-11-23T17:02:33;10.20;99.90
47114;DHT22;32867;51.556;6.832;2022-11-23T17:07:34;10.20;99.90
47114;DHT22;32867;51.556;6.832;2022-11-23T17:12:35;10.20;99.90
47114;DHT22;32867;51.556;6.832;2022-11-23T17:17:36;10.20;99.90
47114;DHT22;32867;51.556;6.832;2022-11-23T17:22:37;10.00;99.90
47114;DHT22;32867;51.556;6.832;2022-11-23T17:27:39;10.00;99.90
47114;DHT22;32867;51.556;6.832;2022-11-23T17:32:41;9.80;99.90
47114;DHT22;32867;51.556;6.832;2022-11-23T17:37:42;9.80;99.90
47114;DHT22;32867;51.556;6.832;2022-11-23T17:42:43;9.80;99.90
47114;DHT22;32867;51.556;6.832;2022-11-23T17:47:44;9.80;99.90
47114;DHT22;32867;51.556;6.832;2022-11-23T17:52:46;9.70;99.90
47114;DHT22;32867;51.556;6.832;2022-11-23T17:57:46;9.80;99.90
47114;DHT22;32867;51.556;6.832;2022-11-23T18:02:47;9.80;99.90
47114;DHT22;32867;51.556;6.832;2022-11-23T18:07:49;9.70;99.90
47114;DHT22;32867;51.556;6.832;2022-11-23T18:12:50;9.80;99.90
47114;DHT22;32867;51.556;6.832;2022-11-23T18:17:50;9.70;99.90
47114;DHT22;32867;51.556;6.832;2022-11-23T18:22:51;9.60;99.90
47114;DHT22;32867;51.556;6.832;2022-11-23T18:27:52;9.60;99.90
47114;DHT22;32867;51.556;6.832;2022-11-23T18:32:53;9.70;99.90
47114;DHT22;32867;51.556;6.832;2022-11-23T18:37:54;9.70;99.90
47114;DHT22;32867;51.556;6.832;2022-11-23T18:42:55;9.90;99.90
47114;DHT22;32867;51.556;6.832;2022-11-23T18:47:58;9.80;99.90
47114;DHT22;32867;51.556;6.832;2022-11-23T18:52:58;9.80;99.90
47114;DHT22;32867;51.556;6.832;2022-11-23T18:57:59;9.70;99.90
47114;DHT22;32867;51.556;6.832;2022-11-23T19:03:01;9.70;99.90
47114;DHT22;32867;51.556;6.832;2022-11-23T19:08:06;9.80;99.90
47114;DHT22;32867;51.556;6.832;2022-11-23T19:13:07;9.70;99.90
47114;DHT22;32867;51.556;6.832;2022-11-23T19:18:08;9.80;99.90
47114;DHT22;32867;51.556;6.832;2022-11-23T19:23:08;9.90;99.90
47114;DHT22;32867;51.556;6.832;2022-11-23T19:28:09;9.90;99.90
47114;DHT22;32867;51.556;6.832;2022-11-23T19:33:09;9.80;99.90
47114;DHT22;32867;51.556;6.832;2022-11-23T19:38:10;9.90;99.90
47114;DHT22;32867;51.556;6.832;2022-11-23T19:43:11;9.90;99.90
47114;DHT22;32867;51.556;6.832;2022-11-23T19:48:11;9.60;99.90
47114;DHT22;32867;51.556;6.832;2022-11-23T19:53:12;9.90;99.90
47114;DHT22;32867;51.556;6.832;2022-11-23T19:58:13;9.80;99.90
47114;DHT22;32867;51.556;6.832;2022-11-23T20:03:14;9.80;99.90
47114;DHT22;32867;51.556;6.832;2022-11-23T20:08:16;9.90;99.90
47114;DHT22;32867;51.556;6.832;2022-11-23T20:13:17;9.80;99.90
47114;DHT22;32867;51.556;6.832;2022-11-23T20:18:18;10.00;99.90
47114;DHT22;32867;51.556;6.832;2022-11-23T20:23:19;9.80;99.90
47114;DHT22;32867;51.556;6.832;2022-11-23T20:28:19;9.90;99.90
47114;DHT22;32867;51.556;6.832;2022-11-23T20:33:20;9.90;99.90
47114;DHT22;32867;51.556;6.832;2022-11-23T20:38:21;9.80;99.90
47114;DHT22;32867;51.556;6.832;2022-11-23T20:43:22;9.70;99.90
47114;DHT22;32867;51.556;6.832;2022-11-23T20:48:22;9.80;99.90
47114;DHT22;32867;51.556;6.832;2022-11-23T20:53:23;9.70;99.90
47114;DHT22;32867;51.556;6.832;2022-11-23T20:58:23;9.50;99.90
47114;DHT22;32867;51.556;6.832;2022-11-23T21:03:24;9.30;99.90
47114;DHT22;32867;51.556;6.832;2022-11-23T21:08:25;9.50;99.90
47114;DHT22;32867;51.556;6.832;2022-11-23T21:13:28;9.50;99.90
47114;DHT22;32867;51.556;6.832;2022-11-23T21:18:47;9.40;99.90
47114;DHT22;32867;51.556;6.832;2022-11-23T21:23:51;9.40;99.90
47114;DHT22;32867;51.556;6.832;2022-11-23T21:28:52;9.40;99.90
47114;DHT22;32867;51.556;6.832;2022-11-23T21:33:53;9.40;99.90
47114;DHT22;32867;51.556;6.832;2022-11-23T21:38:54;9.30;99.90
47114;DHT22;32867;51.556;6.832;2022-11-23T21:43:54;9.20;99.90
47114;DHT22;32867;51.556;6.832;2022-11-23T21:48:56;9.20;99.90
47114;DHT22;32867;51.556;6.832;2022-11-23T21:53:59;9.20;99.90
47114;DHT22;32867;51.556;6.832;2022-11-23T21:59:00;9.30;99.90
47114;DHT22;32867;51.556;6.832;2022-11-23T22:04:03;9.20;99.90
47114;DHT22;32867;51.556;6.832;2022-11-23T22:09:06;9.30;99.90
47114;DHT22;32867;51.556;6.832;2022-11-23T22:14:13;9.20;99.90
47114;DHT22;32867;51.556;6.832;2022-11-23T22:19:15;9.20;99.90
47114;DHT22;32867;51.556;6.832;2022-11-23T22:24:17;9.10;99.90
47114;DHT22;32867;51.556;6.832;2022-11-23T22:29:18;9.10;99.90
47114;DHT22;32867;51.556;6.832;2022-11-23T22:34:19;9.20;99.90
47114;DHT22;32867;51.556;6.832;2022-11-23T22:39:20;9.10;99.90
47114;DHT22;32867;51.556;6.832;2022-11-23T22:44:21;9.10;99.90
47114;DHT22;32867;51.556;6.832;2022-11-23T22:49:22;9.10;99.90
47114;DHT22;32867;51.556;6.832;2022-11-23T22:54:23;9.00;99.90
47114;DHT22;32867;51.556;6.832;2022-11-23T22:59:23;9.10;99.90
47114;DHT22;32867;51.556;6.832;2022-11-23T23:04:24;9.10;99.90
47114;DHT22;32867;51.556;6.832;2022-11-23T23:09:25;9.30;99.90
47114;DHT22;32867;51.556;6.832;2022-11-23T23:14:26;9.30;99.90
47114;DHT22;32867;51.556;6.832;2022-11-23T23:19:27;9.30;99.90
47114;DHT22;32867;51.556;6.832;2022-11-23T23:24:28;9.30;99.90
47114;DHT22;32867;51.556;6.832;2022-11-23T23:29:29;9.30;99.90
47114;DHT22;32867;51.556;6.832;2022-11-23T23:34:30;9.30;99.90
47114;DHT22;32867;51.556;6.832;2022-11-23T23:39:31;9.30;99.90
47114;DHT22;32867;51.556;6.832;2022-11-23T23:44:31;9.20;99.90
47114;DHT22;32867;51.556;6.832;2022-11-23T23:49:33;9.30;99.90
47114;DHT22;32867;51.556;6.832;2022-11-23T23:54:34;9.20;99.90
47114;DHT22;32867;51.556;6.832;2022-11-23T23:59:34;9.20;99.90
